createdAt,value
2022-12-31T00:02:01.334Z,3.80
2022-12-31T00:04:51.770Z,4.00
2022-12-31T00:10:31.429Z,4.20
2022-12-31T00:13:21.858Z,4.00
2022-12-31T00:16:15.398Z,4.10
2022-12-31T00:19:07.147Z,4.00
2022-12-31T00:21:57.360Z,3.80
2022-12-31T00:24:47.702Z,3.80
2022-12-31T00:27:37.685Z,4.50
2022-12-31T00:30:27.813Z,3.90
2022-12-31T00:33:18.337Z,3.90
2022-12-31T00:36:12.137Z,3.90
2022-12-31T00:39:03.965Z,3.80
2022-12-31T00:41:53.961Z,3.80
2022-12-31T00:44:43.743Z,3.70
2022-12-31T00:47:33.835Z,3.40
2022-12-31T00:50:23.778Z,3.90
2022-12-31T00:53:14.073Z,3.80
2022-12-31T00:56:06.439Z,3.60
2022-12-31T00:58:57.051Z,3.70
2022-12-31T01:01:47.441Z,3.90
2022-12-31T01:04:37.706Z,3.60
2022-12-31T01:07:28.232Z,3.70
2022-12-31T01:10:38.684Z,3.90
2022-12-31T01:13:29.097Z,3.80
2022-12-31T01:16:20.868Z,3.20
2022-12-31T01:19:13.545Z,3.40
2022-12-31T01:22:03.645Z,3.10
2022-12-31T01:24:53.460Z,3.40
2022-12-31T01:27:43.789Z,3.60
2022-12-31T01:30:34.009Z,3.20
2022-12-31T01:33:24.459Z,3.40
2022-12-31T01:36:25.357Z,3.40
2022-12-31T01:39:17.295Z,3.30
2022-12-31T01:42:07.916Z,3.30
2022-12-31T01:44:58.766Z,3.60
2022-12-31T01:47:52.605Z,3.40
2022-12-31T01:50:44.812Z,3.50
2022-12-31T01:53:40.718Z,3.60
2022-12-31T01:56:32.493Z,3.30
2022-12-31T01:59:26.281Z,3.40
2022-12-31T02:02:18.698Z,3.50
2022-12-31T02:05:19.821Z,3.50
2022-12-31T02:08:11.687Z,3.20
2022-12-31T02:11:01.934Z,3.00
2022-12-31T02:13:58.150Z,3.40
2022-12-31T02:16:59.166Z,3.50
2022-12-31T02:20:31.379Z,3.10
2022-12-31T02:23:38.025Z,2.90
2022-12-31T02:26:46.778Z,2.70
2022-12-31T02:30:07.483Z,2.90
2022-12-31T02:33:20.779Z,3.30
2022-12-31T02:36:19.770Z,3.60
2022-12-31T02:39:12.480Z,3.40
2022-12-31T02:42:03.803Z,3.30
2022-12-31T02:44:54.160Z,3.50
2022-12-31T02:47:55.562Z,3.10
2022-12-31T02:50:56.485Z,3.60
2022-12-31T02:54:06.302Z,3.20
2022-12-31T02:57:16.562Z,3.20
2022-12-31T03:00:27.814Z,2.90
2022-12-31T03:03:18.986Z,2.90
2022-12-31T03:06:12.989Z,3.40
2022-12-31T03:09:14.503Z,3.20
2022-12-31T03:12:23.628Z,3.00
2022-12-31T03:15:22.009Z,3.00
2022-12-31T03:18:14.917Z,2.80
2022-12-31T03:21:21.954Z,3.00
2022-12-31T03:24:30.054Z,2.80
2022-12-31T03:27:19.955Z,3.20
2022-12-31T03:30:13.839Z,2.80
2022-12-31T03:33:04.813Z,2.80
2022-12-31T03:35:57.510Z,3.20
2022-12-31T03:38:52.743Z,2.80
2022-12-31T03:41:43.701Z,3.00
2022-12-31T03:44:34.420Z,2.70
2022-12-31T03:47:29.796Z,2.80
2022-12-31T03:50:22.162Z,2.80
2022-12-31T03:53:12.407Z,2.60
2022-12-31T03:56:03.002Z,2.70
2022-12-31T03:58:53.223Z,2.40
2022-12-31T04:01:43.613Z,2.80
2022-12-31T04:04:34.016Z,2.70
2022-12-31T04:07:24.641Z,2.80
2022-12-31T04:10:16.963Z,3.00
2022-12-31T04:13:07.151Z,2.80
2022-12-31T04:15:57.529Z,2.80
2022-12-31T04:18:47.622Z,2.70
2022-12-31T04:21:37.813Z,2.60
2022-12-31T04:24:28.200Z,2.60
2022-12-31T04:27:18.818Z,2.70
2022-12-31T04:30:11.318Z,2.80
2022-12-31T04:33:01.126Z,2.80
2022-12-31T04:35:52.439Z,2.60
2022-12-31T04:38:42.686Z,2.80
2022-12-31T04:41:32.672Z,3.10
2022-12-31T04:44:23.324Z,2.80
2022-12-31T04:47:15.261Z,2.90
2022-12-31T04:50:09.628Z,2.90
2022-12-31T04:53:00.131Z,2.80
2022-12-31T04:55:50.423Z,2.90
2022-12-31T04:58:41.293Z,2.80
2022-12-31T05:01:31.372Z,2.90
2022-12-31T05:04:21.401Z,2.80
2022-12-31T05:07:12.108Z,3.20
2022-12-31T05:10:01.982Z,2.80
2022-12-31T05:12:52.381Z,2.80
2022-12-31T05:15:43.082Z,3.00
2022-12-31T05:18:34.389Z,2.80
2022-12-31T05:21:25.260Z,2.60
2022-12-31T05:24:15.787Z,2.50
2022-12-31T05:27:05.937Z,3.20
2022-12-31T05:29:55.619Z,3.00
2022-12-31T05:32:46.230Z,3.10
2022-12-31T05:35:36.880Z,2.80
2022-12-31T05:38:27.226Z,2.90
2022-12-31T05:41:17.957Z,2.70
2022-12-31T05:44:08.309Z,2.80
2022-12-31T05:46:58.828Z,3.80
2022-12-31T05:49:49.900Z,3.40
2022-12-31T05:52:47.183Z,3.30
2022-12-31T05:55:38.150Z,3.10
2022-12-31T05:58:28.971Z,3.00
2022-12-31T06:01:19.213Z,3.20
2022-12-31T06:04:10.268Z,3.00
2022-12-31T06:07:00.218Z,2.80
2022-12-31T06:09:50.837Z,2.80
2022-12-31T06:12:41.636Z,2.60
2022-12-31T06:15:31.669Z,2.90
2022-12-31T06:18:23.169Z,2.90
2022-12-31T06:21:13.822Z,2.80
2022-12-31T06:24:03.924Z,2.60
2022-12-31T06:26:54.733Z,2.60
2022-12-31T06:29:48.464Z,2.40
2022-12-31T06:32:39.642Z,2.70
2022-12-31T06:35:30.113Z,2.80
2022-12-31T06:38:21.305Z,2.30
2022-12-31T06:41:13.165Z,2.50
2022-12-31T06:44:03.430Z,2.30
2022-12-31T06:46:54.015Z,2.20
2022-12-31T06:49:44.322Z,2.70
2022-12-31T06:52:34.723Z,2.40
2022-12-31T06:55:26.374Z,2.80
2022-12-31T06:58:17.382Z,2.30
2022-12-31T07:01:27.037Z,2.60
2022-12-31T07:04:45.138Z,2.50
2022-12-31T07:07:44.543Z,2.40
2022-12-31T07:10:44.263Z,2.30
2022-12-31T07:14:00.248Z,2.30
2022-12-31T07:17:02.855Z,2.90
2022-12-31T07:20:01.329Z,3.20
2022-12-31T07:22:52.817Z,3.20
2022-12-31T07:25:49.479Z,3.20
2022-12-31T07:28:53.501Z,2.90
2022-12-31T07:31:57.822Z,2.80
2022-12-31T07:34:53.823Z,2.70
2022-12-31T07:37:53.203Z,2.70
2022-12-31T07:40:57.616Z,2.50
2022-12-31T07:43:57.935Z,2.90
2022-12-31T07:46:56.865Z,2.80
2022-12-31T07:49:48.249Z,2.70
2022-12-31T07:52:40.265Z,2.80
2022-12-31T07:55:31.586Z,2.80
2022-12-31T07:58:27.405Z,2.50
2022-12-31T08:01:28.858Z,2.60
2022-12-31T08:04:27.926Z,2.40
2022-12-31T08:07:24.105Z,2.50
2022-12-31T08:10:22.308Z,2.30
2022-12-31T08:13:15.318Z,2.40
2022-12-31T08:16:06.336Z,2.30
2022-12-31T08:18:57.706Z,2.30
2022-12-31T08:21:56.506Z,2.50
2022-12-31T08:25:00.313Z,3.50
2022-12-31T08:27:59.216Z,3.40
2022-12-31T08:30:59.463Z,3.90
2022-12-31T08:33:56.786Z,5.20
2022-12-31T08:36:57.606Z,4.80
2022-12-31T08:40:06.243Z,4.70
2022-12-31T08:43:11.184Z,4.90
2022-12-31T08:46:03.927Z,5.10
2022-12-31T08:48:54.350Z,5.50
2022-12-31T08:51:45.506Z,5.20
2022-12-31T08:54:36.837Z,4.40
2022-12-31T08:57:35.343Z,4.60
2022-12-31T09:00:27.887Z,4.50
2022-12-31T09:03:30.294Z,4.90
2022-12-31T09:06:28.450Z,4.70
2022-12-31T09:09:30.193Z,4.70
2022-12-31T09:12:29.959Z,4.50
2022-12-31T09:15:27.667Z,5.00
2022-12-31T09:18:18.660Z,7.90
2022-12-31T09:21:10.658Z,10.20
2022-12-31T09:24:08.950Z,8.10
2022-12-31T09:27:11.068Z,5.80
2022-12-31T09:30:07.202Z,3.90
2022-12-31T09:33:04.048Z,4.30
2022-12-31T09:35:58.331Z,4.20
2022-12-31T09:38:57.541Z,4.50
2022-12-31T09:42:14.337Z,4.00
2022-12-31T09:45:27.309Z,4.30
2022-12-31T09:48:48.517Z,4.10
2022-12-31T09:51:47.455Z,4.50
2022-12-31T09:55:01.874Z,4.60
2022-12-31T09:58:03.467Z,4.30
2022-12-31T10:00:59.615Z,3.90
2022-12-31T10:04:24.322Z,4.10
2022-12-31T10:07:32.039Z,3.90
2022-12-31T10:10:30.872Z,4.10
2022-12-31T10:13:37.626Z,3.80
2022-12-31T10:16:53.222Z,3.70
2022-12-31T10:20:05.920Z,4.20
2022-12-31T10:23:21.972Z,4.30
2022-12-31T10:26:29.340Z,4.20
2022-12-31T10:29:35.749Z,4.40
2022-12-31T10:32:38.518Z,4.50
2022-12-31T10:35:41.246Z,4.50
2022-12-31T10:38:40.571Z,4.30
2022-12-31T10:42:03.207Z,4.40
2022-12-31T10:45:13.378Z,4.30
2022-12-31T10:48:29.412Z,4.50
2022-12-31T10:51:58.219Z,5.00
2022-12-31T10:55:18.759Z,5.60
2022-12-31T10:58:32.864Z,6.40
2022-12-31T11:01:34.191Z,5.60
2022-12-31T11:04:58.368Z,5.10
2022-12-31T11:08:14.865Z,5.00
2022-12-31T11:11:19.920Z,4.80
2022-12-31T11:14:38.589Z,5.00
2022-12-31T11:17:38.876Z,4.70
2022-12-31T11:20:42.775Z,4.90
2022-12-31T11:23:44.353Z,4.90
2022-12-31T11:26:46.066Z,5.10
2022-12-31T11:29:49.808Z,5.10
2022-12-31T11:32:54.993Z,5.10
2022-12-31T11:36:01.807Z,4.10
2022-12-31T11:39:01.804Z,3.80
2022-12-31T11:41:54.085Z,3.90
2022-12-31T11:44:51.595Z,4.00
2022-12-31T11:48:28.522Z,4.00
2022-12-31T11:51:17.823Z,3.90
2022-12-31T11:54:40.215Z,3.90
2022-12-31T11:57:36.808Z,3.80
2022-12-31T12:00:29.069Z,3.70
2022-12-31T12:03:19.183Z,3.80
2022-12-31T12:06:13.409Z,3.80
2022-12-31T12:09:08.148Z,4.30
2022-12-31T12:12:03.932Z,4.50
2022-12-31T12:14:55.873Z,4.20
2022-12-31T12:17:51.210Z,4.80
2022-12-31T12:20:45.468Z,4.60
2022-12-31T12:23:35.560Z,3.60
2022-12-31T12:26:37.578Z,4.00
2022-12-31T12:29:34.404Z,3.70
2022-12-31T12:32:27.310Z,3.50
2022-12-31T12:35:24.788Z,3.70
2022-12-31T12:38:20.527Z,3.30
2022-12-31T12:41:14.596Z,3.60
2022-12-31T12:44:10.264Z,3.00
2022-12-31T12:47:03.477Z,3.00
2022-12-31T12:49:56.803Z,3.30
2022-12-31T12:53:09.445Z,3.40
2022-12-31T12:56:10.242Z,3.60
2022-12-31T12:59:20.766Z,4.00
2022-12-31T13:02:33.067Z,3.90
2022-12-31T13:05:36.777Z,3.60
2022-12-31T13:08:37.719Z,3.30
2022-12-31T13:11:41.646Z,3.50
2022-12-31T13:14:38.951Z,3.40
2022-12-31T13:17:49.780Z,3.50
2022-12-31T13:20:51.456Z,3.40
2022-12-31T13:23:49.436Z,3.30
2022-12-31T13:26:46.207Z,3.20
2022-12-31T13:29:38.742Z,3.20
2022-12-31T13:32:37.932Z,3.50
2022-12-31T13:35:31.179Z,4.10
2022-12-31T13:38:26.883Z,3.40
2022-12-31T13:41:22.896Z,3.30
2022-12-31T13:44:19.323Z,3.60
2022-12-31T13:47:15.755Z,4.10
2022-12-31T13:50:16.006Z,3.50
2022-12-31T13:53:15.390Z,4.40
2022-12-31T13:56:11.157Z,4.80
2022-12-31T13:59:06.656Z,4.20
2022-12-31T14:02:04.655Z,4.20
2022-12-31T14:04:59.186Z,4.50
2022-12-31T14:07:53.148Z,4.10
2022-12-31T14:10:58.620Z,3.90
2022-12-31T14:14:04.464Z,4.20
2022-12-31T14:17:00.493Z,4.10
2022-12-31T14:20:00.124Z,4.30
2022-12-31T14:22:57.826Z,5.10
2022-12-31T14:25:54.238Z,5.00
2022-12-31T14:28:49.281Z,5.00
2022-12-31T14:32:00.810Z,5.00
2022-12-31T14:34:59.699Z,4.70
2022-12-31T14:37:58.165Z,5.50
2022-12-31T14:41:02.695Z,8.90
2022-12-31T14:44:04.826Z,8.70
2022-12-31T14:47:07.919Z,9.10
2022-12-31T14:50:05.964Z,8.10
2022-12-31T14:53:07.699Z,7.70
2022-12-31T14:56:02.888Z,7.70
2022-12-31T14:59:00.292Z,7.60
2022-12-31T15:01:50.661Z,7.60
2022-12-31T15:04:47.454Z,8.90
2022-12-31T15:07:49.346Z,9.90
2022-12-31T15:10:49.337Z,10.70
2022-12-31T15:13:56.093Z,10.60
2022-12-31T15:16:56.054Z,11.70
2022-12-31T15:20:18.958Z,12.70
2022-12-31T15:23:21.257Z,16.80
2022-12-31T15:26:24.399Z,16.90
2022-12-31T15:29:31.179Z,16.60
2022-12-31T15:32:26.380Z,15.30
2022-12-31T15:35:32.007Z,13.90
2022-12-31T15:38:42.967Z,13.10
2022-12-31T15:42:03.018Z,12.60
2022-12-31T15:44:58.052Z,13.30
2022-12-31T15:47:51.351Z,11.30
2022-12-31T15:50:43.514Z,12.20
2022-12-31T15:53:40.407Z,12.40
2022-12-31T15:56:39.824Z,12.90
2022-12-31T15:59:31.037Z,13.80
2022-12-31T16:02:25.862Z,13.60
2022-12-31T16:05:25.617Z,12.30
2022-12-31T16:08:22.913Z,9.00
2022-12-31T16:11:14.264Z,9.20
2022-12-31T16:14:05.059Z,10.00
2022-12-31T16:16:58.288Z,9.00
2022-12-31T16:19:48.982Z,8.90
2022-12-31T16:22:41.089Z,10.10
2022-12-31T16:25:33.934Z,11.40
2022-12-31T16:28:34.133Z,16.20
2022-12-31T16:31:24.728Z,20.30
2022-12-31T16:34:17.929Z,20.80
2022-12-31T16:37:16.017Z,20.80
2022-12-31T16:40:24.900Z,20.10
2022-12-31T16:43:30.388Z,19.20
2022-12-31T16:46:26.406Z,18.70
2022-12-31T16:49:22.452Z,17.70
2022-12-31T16:52:31.964Z,17.30
2022-12-31T16:55:25.243Z,16.60
2022-12-31T16:58:24.113Z,16.70
2022-12-31T17:01:19.036Z,15.70
2022-12-31T17:04:13.604Z,15.40
2022-12-31T17:07:30.628Z,15.10
2022-12-31T17:10:25.067Z,15.10
2022-12-31T17:13:29.582Z,14.70
2022-12-31T17:16:21.570Z,15.10
2022-12-31T17:19:31.600Z,14.50
2022-12-31T17:22:35.728Z,14.00
2022-12-31T17:25:29.775Z,12.90
2022-12-31T17:28:25.922Z,12.80
2022-12-31T17:31:35.332Z,12.20
2022-12-31T17:34:30.796Z,11.00
2022-12-31T17:37:24.864Z,12.00
2022-12-31T17:40:50.935Z,12.80
2022-12-31T17:43:42.883Z,15.90
2022-12-31T17:46:34.979Z,16.40
2022-12-31T17:49:32.063Z,15.90
2022-12-31T17:52:22.460Z,14.60
2022-12-31T17:55:12.742Z,14.10
2022-12-31T17:58:06.868Z,14.00
2022-12-31T18:00:58.348Z,14.00
2022-12-31T18:03:49.107Z,13.50
2022-12-31T18:06:38.984Z,13.20
2022-12-31T18:09:29.049Z,13.00
2022-12-31T18:12:26.446Z,13.20
2022-12-31T18:15:23.585Z,13.50
2022-12-31T18:18:25.352Z,13.90
2022-12-31T18:21:23.648Z,14.30
2022-12-31T18:24:24.267Z,15.50
2022-12-31T18:27:20.527Z,15.10
2022-12-31T18:30:13.579Z,16.00
2022-12-31T18:33:06.453Z,15.30
2022-12-31T18:36:08.640Z,15.70
2022-12-31T18:39:00.161Z,16.50
2022-12-31T18:41:50.787Z,16.60
2022-12-31T18:44:41.709Z,16.20
2022-12-31T18:47:37.438Z,16.50
2022-12-31T18:50:28.593Z,16.70
2022-12-31T18:53:21.143Z,17.00
2022-12-31T18:56:15.283Z,17.80
2022-12-31T18:59:05.442Z,18.10
2022-12-31T19:01:55.189Z,16.40
2022-12-31T19:04:45.270Z,16.40
2022-12-31T19:07:35.794Z,15.60
2022-12-31T19:10:26.401Z,15.90
2022-12-31T19:13:18.003Z,15.40
2022-12-31T19:16:09.063Z,15.10
2022-12-31T19:19:01.562Z,14.40
2022-12-31T19:21:55.548Z,15.70
2022-12-31T19:24:45.634Z,15.70
2022-12-31T19:27:35.418Z,14.40
2022-12-31T19:30:27.349Z,13.80
2022-12-31T19:33:18.179Z,13.60
2022-12-31T19:36:15.535Z,13.50
2022-12-31T19:39:08.108Z,13.70
2022-12-31T19:41:59.437Z,13.50
2022-12-31T19:44:50.203Z,12.90
2022-12-31T19:47:40.480Z,13.40
2022-12-31T19:50:31.545Z,14.00
2022-12-31T19:53:24.233Z,14.10
2022-12-31T19:56:16.907Z,13.10
2022-12-31T19:59:09.181Z,12.80
2022-12-31T20:01:59.299Z,12.90
2022-12-31T20:04:49.837Z,12.20
2022-12-31T20:07:40.288Z,12.40
2022-12-31T20:10:30.745Z,12.80
2022-12-31T20:13:21.629Z,16.20
2022-12-31T20:16:14.441Z,17.00
2022-12-31T20:19:06.352Z,16.30
2022-12-31T20:21:56.488Z,16.20
2022-12-31T20:24:47.258Z,16.10
2022-12-31T20:27:40.032Z,15.30
2022-12-31T20:30:31.126Z,15.00
2022-12-31T20:33:21.860Z,14.80
2022-12-31T20:36:14.818Z,15.60
2022-12-31T20:39:05.988Z,15.60
2022-12-31T20:41:56.278Z,15.80
2022-12-31T20:44:46.238Z,14.70
2022-12-31T20:47:36.589Z,15.20
2022-12-31T20:50:28.084Z,16.30
2022-12-31T20:53:18.184Z,16.40
2022-12-31T20:56:09.674Z,15.90
2022-12-31T20:59:00.206Z,18.50
2022-12-31T21:02:20.093Z,19.20
2022-12-31T21:05:00.280Z,18.40
2022-12-31T21:07:50.618Z,18.90
2022-12-31T21:10:40.613Z,18.40
2022-12-31T21:13:31.609Z,19.00
2022-12-31T21:16:22.103Z,18.20
2022-12-31T21:19:12.910Z,17.40
2022-12-31T21:22:02.593Z,18.00
2022-12-31T21:24:52.980Z,23.60
2022-12-31T21:27:43.171Z,21.40
2022-12-31T21:30:33.501Z,17.70
2022-12-31T21:33:23.551Z,15.50
2022-12-31T21:36:14.161Z,15.20
2022-12-31T21:39:04.892Z,15.10
2022-12-31T21:41:55.399Z,14.90
2022-12-31T21:44:45.548Z,15.00
2022-12-31T21:47:53.482Z,15.80
2022-12-31T21:50:46.194Z,15.80
2022-12-31T21:53:37.816Z,15.40
2022-12-31T21:56:28.956Z,17.10
2022-12-31T21:59:39.037Z,16.20
2022-12-31T22:02:59.134Z,14.90
2022-12-31T22:05:52.951Z,13.10
2022-12-31T22:08:46.814Z,13.60
2022-12-31T22:11:36.833Z,13.40
2022-12-31T22:14:27.338Z,13.50
2022-12-31T22:17:17.293Z,12.40
2022-12-31T22:20:26.613Z,12.80
2022-12-31T22:23:17.621Z,12.20
2022-12-31T22:26:09.412Z,12.60
2022-12-31T22:29:00.314Z,13.10
2022-12-31T22:31:50.457Z,13.70
2022-12-31T22:34:41.802Z,16.70
2022-12-31T22:37:57.084Z,17.10
2022-12-31T22:40:42.229Z,14.90
2022-12-31T22:43:33.698Z,13.10
2022-12-31T22:46:25.784Z,12.30
2022-12-31T22:49:17.231Z,12.20
2022-12-31T22:52:08.946Z,12.30
2022-12-31T22:54:59.305Z,12.20
2022-12-31T22:57:49.603Z,11.70
2022-12-31T23:00:43.069Z,11.00
2022-12-31T23:03:33.192Z,11.20
2022-12-31T23:06:24.886Z,10.80
2022-12-31T23:09:34.343Z,17.30
2022-12-31T23:12:24.953Z,19.90
2022-12-31T23:15:32.418Z,16.10
2022-12-31T23:18:39.916Z,12.60
2022-12-31T23:21:47.553Z,13.90
2022-12-31T23:24:37.959Z,14.20
2022-12-31T23:27:28.094Z,18.20
2022-12-31T23:30:18.547Z,20.50
2022-12-31T23:33:09.092Z,28.20
2022-12-31T23:36:07.237Z,32.80
2022-12-31T23:38:58.359Z,32.60
2022-12-31T23:41:48.612Z,31.70
2022-12-31T23:44:39.123Z,31.10
2022-12-31T23:47:29.039Z,31.60
2022-12-31T23:50:19.150Z,31.30
2022-12-31T23:53:09.962Z,29.80
2022-12-31T23:56:14.893Z,29.00
2022-12-31T23:59:08.046Z,26.70
